Aniak, AK (99557)

7:42 PM AKDT on March 25, 2017 (GMT -0800)
Sparrevohn LRRS | | Change Station

Elev 1585 ft 61.10 °N, 155.57 °W | Updated 47 minutes ago

Clear
Clear
18 °F
Feels Like 3 °F
N
16
Wind Variable Wind from NNW
Gusts 18 mph

Today
High -- | Low -- °F
--% Chance of Precip.
Yesterday
High -- | Low -- °F
Precip. -- in
Pressure 29.74 in
Visibility 10.0 miles
Clouds Clear
Windchill 3 °F
Dew Point 4 °F
Humidity 54%
Rainfall 0.00 in
Snow Depth Not available.
8:07 AM 8:53 PM
Waning Crescent, 5% visible
METAR PASV 260255Z AUTO 34014G16KT 10SM CLR M08/M15 A2960 RMK AO2 SLP070 T10771155 57003
Pressure 29.74 in
Visibility 10.0 miles
Clouds Clear
Windchill 3 °F
Dew Point 4 °F
Humidity 54%
Rainfall 0.00 in
Snow Depth Not available.
8:07 AM 8:53 PM
Waning Crescent, 5% visible
METAR PASV 260255Z AUTO 34014G16KT 10SM CLR M08/M15 A2960 RMK AO2 SLP070 T10771155 57003

Get Severe Weather Alerts

Thanks for signing up!

Be on the lookout for a verification email in your inbox.

You'll start receiving the daily forecast at 8 AM.

×

10-Day Weather Forecast

Almanac

Astronomy

Mar. 25, 2017 Rise Set
Actual Time
Civil Twilight
Nautical Twilight
Astronomical Twilight
Moon
Length of Visible Light
Length of Day
Tomorrow will be .
, % of the Moon is Illuminated

Today's Extremes

State Highs State Lows

Community

WunderPhotos

Upload Photos

1,962,540 photos uploaded!

WunderBlog® & News

Nearby

Air Quality

  Air Quality AQ Index Pollutant
Not available.

Snow Depth

Station Depth Elevation

Earthquake Activity

City Distance Mag. Time & Date
Minimum magnitude displayed is 2.5.

Earthquake Activity

City Distance Mag. Time & Date
Minimum magnitude displayed is 2.5.

Coastal Water Temperatures

Place Temperature

Stations

Nearby Weather Stations

Station Location Temp. Windchill Dew Point Humidity Wind Precip. Elev Updated Type
                   

Watches & Warnings

There are currently no watches in effect.